createdAt,value
2022-09-07T00:01:36.201Z,1.50
2022-09-07T00:04:03.385Z,1.60
2022-09-07T00:06:31.021Z,2.03
2022-09-07T00:08:58.578Z,1.30
2022-09-07T00:11:25.070Z,1.47
2022-09-07T00:13:51.565Z,1.60
2022-09-07T00:16:20.936Z,2.10
2022-09-07T00:18:47.559Z,1.77
2022-09-07T00:21:14.912Z,1.50
2022-09-07T00:23:41.450Z,1.60
2022-09-07T00:26:19.621Z,1.53
2022-09-07T00:28:46.503Z,1.97
2022-09-07T00:31:14.592Z,1.60
2022-09-07T00:33:41.902Z,1.40
2022-09-07T00:36:08.809Z,1.67
2022-09-07T00:38:35.368Z,1.47
2022-09-07T00:41:02.164Z,1.60
2022-09-07T00:43:33.429Z,1.60
2022-09-07T00:46:00.138Z,1.50
2022-09-07T00:48:31.365Z,1.57
2022-09-07T00:51:02.757Z,1.40
2022-09-07T00:53:34.519Z,1.60
2022-09-07T00:56:01.278Z,1.60
2022-09-07T00:58:27.933Z,1.40
2022-09-07T01:00:55.817Z,1.90
2022-09-07T01:03:31.050Z,1.83
2022-09-07T01:05:57.533Z,2.13
2022-09-07T01:08:24.381Z,2.23
2022-09-07T01:10:50.912Z,2.10
2022-09-07T01:13:17.438Z,2.47
2022-09-07T01:16:02.776Z,2.07
2022-09-07T01:18:42.700Z,2.57
2022-09-07T01:21:09.185Z,1.93
2022-09-07T01:23:54.421Z,2.20
2022-09-07T01:26:26.903Z,2.17
2022-09-07T01:28:59.191Z,2.10
2022-09-07T01:31:34.956Z,2.13
2022-09-07T01:34:10.159Z,2.00
2022-09-07T01:36:36.717Z,2.70
2022-09-07T01:39:04.601Z,2.30
2022-09-07T01:41:35.952Z,2.00
2022-09-07T01:44:05.784Z,1.90
2022-09-07T01:46:34.872Z,2.27
2022-09-07T01:49:05.520Z,2.23
2022-09-07T01:51:33.732Z,1.97
2022-09-07T01:54:06.494Z,2.50
2022-09-07T01:56:42.035Z,2.10
2022-09-07T01:59:14.872Z,1.73
2022-09-07T02:01:51.352Z,2.20
2022-09-07T02:04:20.312Z,1.60
2022-09-07T02:06:49.735Z,2.03
2022-09-07T02:09:29.025Z,1.60
2022-09-07T02:11:55.842Z,2.17
2022-09-07T02:14:28.441Z,1.67
2022-09-07T02:17:14.636Z,1.60
2022-09-07T02:19:42.963Z,2.23
2022-09-07T02:22:12.163Z,2.10
2022-09-07T02:24:42.988Z,1.73
2022-09-07T02:27:12.428Z,1.80
2022-09-07T02:29:39.056Z,2.10
2022-09-07T02:32:05.733Z,2.03
2022-09-07T02:34:32.764Z,1.97
2022-09-07T02:37:01.332Z,2.10
2022-09-07T02:39:27.883Z,2.73
2022-09-07T02:41:54.393Z,1.57
2022-09-07T02:44:26.724Z,2.40
2022-09-07T02:46:56.303Z,1.70
2022-09-07T02:49:31.595Z,2.00
2022-09-07T02:52:16.120Z,1.80
2022-09-07T02:54:48.588Z,2.00
2022-09-07T02:57:15.046Z,2.90
2022-09-07T02:59:41.536Z,2.70
2022-09-07T03:02:14.109Z,3.67
2022-09-07T03:04:47.600Z,2.40
2022-09-07T03:07:16.428Z,2.07
2022-09-07T03:09:46.697Z,2.87
2022-09-07T03:12:13.306Z,1.97
2022-09-07T03:14:41.599Z,2.67
2022-09-07T03:17:08.304Z,2.10
2022-09-07T03:19:34.828Z,2.53
2022-09-07T03:22:01.301Z,2.37
2022-09-07T03:24:27.766Z,2.80
2022-09-07T03:26:54.345Z,2.60
2022-09-07T03:29:20.834Z,2.53
2022-09-07T03:31:47.393Z,2.43
2022-09-07T03:34:13.902Z,3.20
2022-09-07T03:36:40.410Z,2.80
2022-09-07T03:39:07.157Z,2.63
2022-09-07T03:41:34.232Z,2.10
2022-09-07T03:44:07.427Z,2.17
2022-09-07T03:46:34.469Z,2.30
2022-09-07T03:49:01.062Z,2.50
2022-09-07T03:51:27.606Z,2.30
2022-09-07T03:53:54.573Z,2.40
2022-09-07T03:56:21.993Z,2.50
2022-09-07T03:58:49.036Z,1.67
2022-09-07T04:01:17.124Z,1.80
2022-09-07T04:03:44.307Z,1.87
2022-09-07T04:06:11.275Z,2.13
2022-09-07T04:08:38.375Z,2.00
2022-09-07T04:11:06.385Z,2.73
2022-09-07T04:13:34.360Z,1.60
2022-09-07T04:16:00.848Z,2.00
2022-09-07T04:18:27.343Z,2.10
2022-09-07T04:20:58.247Z,1.80
2022-09-07T04:23:24.744Z,1.53
2022-09-07T04:25:52.064Z,1.80
2022-09-07T04:28:19.270Z,2.13
2022-09-07T04:30:45.933Z,1.97
2022-09-07T04:33:12.989Z,1.87
2022-09-07T04:35:40.687Z,2.40
2022-09-07T04:38:07.662Z,2.70
2022-09-07T04:40:34.171Z,3.40
2022-09-07T04:43:00.614Z,4.00
2022-09-07T04:45:27.119Z,3.63
2022-09-07T04:47:53.619Z,3.27
2022-09-07T04:50:20.142Z,2.60
2022-09-07T04:52:46.834Z,2.23
2022-09-07T04:55:13.405Z,2.50
2022-09-07T05:00:08.671Z,2.93
2022-09-07T05:02:35.215Z,2.97
2022-09-07T05:05:02.852Z,3.00
2022-09-07T05:07:29.572Z,3.20
2022-09-07T05:09:56.765Z,2.57
2022-09-07T05:12:23.346Z,2.70
2022-09-07T05:14:49.840Z,2.80
2022-09-07T05:17:16.391Z,3.30
2022-09-07T05:19:42.890Z,2.83
2022-09-07T05:22:09.462Z,2.93
2022-09-07T05:24:36.799Z,3.10
2022-09-07T05:27:04.010Z,2.27
2022-09-07T05:32:17.351Z,2.20
2022-09-07T05:34:43.854Z,1.90
2022-09-07T05:37:10.426Z,1.80
2022-09-07T05:39:36.966Z,1.77
2022-09-07T05:42:03.718Z,2.30
2022-09-07T05:44:47.139Z,2.10
2022-09-07T05:47:13.883Z,1.80
2022-09-07T05:49:40.523Z,1.73
2022-09-07T05:52:07.096Z,1.73
2022-09-07T05:54:33.661Z,2.20
2022-09-07T05:57:00.161Z,2.03
2022-09-07T05:59:26.634Z,2.10
2022-09-07T06:01:53.199Z,2.30
2022-09-07T06:04:19.796Z,1.83
2022-09-07T06:07:04.585Z,1.90
2022-09-07T06:09:32.937Z,1.47
2022-09-07T06:11:59.461Z,2.00
2022-09-07T06:14:25.945Z,1.73
2022-09-07T06:16:52.519Z,1.97
2022-09-07T06:19:19.046Z,1.77
2022-09-07T06:21:45.532Z,1.87
2022-09-07T06:24:12.035Z,1.90
2022-09-07T06:26:38.518Z,1.77
2022-09-07T06:29:05.013Z,1.30
2022-09-07T06:31:31.930Z,1.90
2022-09-07T06:33:58.918Z,1.50
2022-09-07T06:36:29.633Z,1.80
2022-09-07T06:38:59.022Z,1.70
2022-09-07T06:44:13.259Z,2.03
2022-09-07T06:49:26.535Z,1.87
2022-09-07T06:51:53.013Z,1.37
2022-09-07T07:26:43.998Z,2.10
2022-09-07T07:29:10.530Z,1.70
2022-09-07T07:31:37.071Z,1.40
2022-09-07T07:34:04.161Z,1.87
2022-09-07T07:36:30.949Z,1.50
2022-09-07T07:44:20.344Z,1.63
2022-09-07T07:46:50.611Z,1.43
2022-09-07T07:49:17.330Z,1.47
2022-09-07T07:54:30.230Z,1.40
2022-09-07T07:56:56.677Z,1.80
2022-09-07T07:59:23.571Z,1.85
2022-09-07T08:01:50.201Z,2.13
2022-09-07T08:04:16.813Z,1.65
2022-09-07T08:06:43.242Z,1.70
2022-09-07T08:09:11.035Z,1.40
2022-09-07T08:11:38.003Z,1.92
2022-09-07T08:14:05.908Z,1.50
2022-09-07T08:16:35.063Z,1.23
2022-09-07T08:19:02.026Z,1.67
2022-09-07T08:21:28.476Z,1.50
2022-09-07T08:23:55.542Z,2.33
2022-09-07T08:26:21.975Z,1.50
2022-09-07T08:28:48.696Z,1.60
2022-09-07T08:31:15.972Z,1.35
2022-09-07T08:33:42.713Z,1.65
2022-09-07T08:36:11.680Z,1.27
2022-09-07T08:38:38.422Z,1.20
2022-09-07T08:41:20.122Z,1.35
2022-09-07T08:43:52.483Z,1.60
2022-09-07T08:46:28.220Z,1.30
2022-09-07T08:48:55.282Z,1.48
2022-09-07T08:51:25.156Z,1.10
2022-09-07T08:53:51.852Z,1.30
2022-09-07T08:56:33.672Z,1.48
2022-09-07T08:59:01.947Z,1.10
2022-09-07T09:01:34.109Z,1.30
2022-09-07T09:04:18.017Z,1.13
2022-09-07T09:07:06.287Z,1.40
2022-09-07T09:09:42.307Z,1.33
2022-09-07T09:12:20.674Z,1.40
2022-09-07T09:15:05.903Z,1.48
2022-09-07T09:17:35.151Z,1.58
2022-09-07T09:20:21.064Z,1.30
2022-09-07T09:22:47.761Z,1.38
2022-09-07T09:25:17.242Z,0.98
2022-09-07T09:27:43.680Z,1.00
2022-09-07T09:30:14.469Z,1.50
2022-09-07T09:32:42.496Z,1.23
2022-09-07T09:35:24.566Z,1.50
2022-09-07T09:37:51.085Z,1.30
2022-09-07T09:40:29.841Z,1.45
2022-09-07T09:43:01.685Z,1.20
2022-09-07T09:45:29.981Z,1.27
2022-09-07T09:47:57.746Z,1.20
2022-09-07T09:53:38.660Z,1.25
2022-09-07T09:56:05.256Z,1.15
2022-09-07T10:01:27.268Z,1.15
2022-09-07T10:06:21.104Z,1.40
2022-09-07T10:09:04.284Z,1.20
2022-09-07T10:14:33.083Z,1.27
2022-09-07T10:17:01.898Z,1.42
2022-09-07T10:19:36.853Z,1.00
2022-09-07T10:22:22.440Z,1.63
2022-09-07T10:24:48.911Z,1.17
2022-09-07T10:27:19.610Z,1.27
2022-09-07T10:29:46.061Z,1.40
2022-09-07T10:32:21.515Z,1.10
2022-09-07T10:35:21.025Z,1.08
2022-09-07T10:37:52.852Z,1.17
2022-09-07T10:40:26.055Z,1.05
2022-09-07T10:43:26.316Z,1.23
2022-09-07T11:06:04.206Z,1.23
2022-09-07T11:12:02.707Z,1.13
2022-09-07T11:14:33.087Z,1.30
2022-09-07T11:17:05.207Z,1.30
2022-09-07T11:19:39.918Z,1.38
2022-09-07T11:22:09.329Z,1.30
2022-09-07T11:27:50.000Z,1.00
2022-09-07T11:30:22.670Z,1.20
2022-09-07T11:32:55.862Z,1.65
2022-09-07T11:35:22.299Z,1.30
2022-09-07T11:37:54.564Z,1.42
2022-09-07T11:40:24.762Z,1.23
2022-09-07T11:42:59.725Z,1.20
2022-09-07T11:45:29.216Z,1.13
2022-09-07T11:48:10.996Z,0.93
2022-09-07T11:50:41.875Z,1.25
2022-09-07T11:53:18.919Z,1.20
2022-09-07T11:55:48.308Z,1.42
2022-09-07T11:58:23.122Z,1.40
2022-09-07T12:30:24.129Z,1.23
2022-09-07T12:32:54.338Z,1.00
2022-09-07T12:35:33.922Z,1.10
2022-09-07T12:38:03.417Z,1.05
2022-09-07T12:40:35.890Z,1.00
2022-09-07T12:43:14.576Z,1.30
2022-09-07T12:45:41.691Z,1.23
2022-09-07T12:48:08.125Z,1.00
2022-09-07T12:50:39.408Z,1.20
2022-09-07T12:53:09.475Z,1.00
2022-09-07T12:58:53.528Z,0.90
2022-09-07T13:01:22.796Z,1.10
2022-09-07T13:03:59.447Z,1.13
2022-09-07T13:09:21.613Z,1.17
2022-09-07T13:11:48.104Z,1.25
2022-09-07T13:14:15.535Z,1.20
2022-09-07T13:19:48.608Z,1.00
2022-09-07T13:22:47.650Z,1.38
2022-09-07T13:25:23.891Z,1.30
2022-09-07T13:27:53.438Z,1.15
2022-09-07T13:30:22.553Z,2.08
2022-09-07T13:35:35.568Z,1.10
2022-09-07T13:38:02.936Z,3.58
2022-09-07T13:40:34.484Z,1.20
2022-09-07T13:43:03.140Z,1.48
2022-09-07T13:45:49.842Z,1.35
2022-09-07T13:48:36.047Z,1.48
2022-09-07T13:51:21.188Z,1.67
2022-09-07T13:53:53.789Z,1.20
2022-09-07T13:56:26.899Z,1.17
2022-09-07T13:58:53.841Z,1.20
2022-09-07T14:01:24.717Z,1.08
2022-09-07T14:03:56.061Z,1.45
2022-09-07T14:06:22.542Z,1.10
2022-09-07T14:08:50.274Z,1.00
2022-09-07T14:11:21.187Z,1.35
2022-09-07T14:14:06.205Z,1.33
2022-09-07T14:16:33.382Z,1.35
2022-09-07T14:18:59.879Z,1.17
2022-09-07T14:21:26.342Z,1.10
2022-09-07T14:23:52.777Z,1.33
2022-09-07T14:26:20.983Z,1.10
2022-09-07T14:28:48.856Z,1.13
2022-09-07T14:31:16.822Z,0.98
2022-09-07T14:33:51.204Z,1.00
2022-09-07T14:36:41.873Z,1.38
2022-09-07T14:39:06.664Z,1.30
2022-09-07T14:41:34.810Z,1.35
2022-09-07T14:44:01.437Z,1.10
2022-09-07T14:46:34.292Z,1.30
2022-09-07T14:49:02.666Z,1.40
2022-09-07T14:51:36.062Z,1.25
2022-09-07T14:54:05.615Z,1.25
2022-09-07T14:56:34.228Z,1.15
2022-09-07T14:59:00.659Z,1.00
2022-09-07T15:01:42.894Z,1.50
2022-09-07T15:04:16.892Z,1.15
2022-09-07T15:09:39.239Z,1.10
2022-09-07T15:12:38.640Z,1.25
2022-09-07T15:15:21.873Z,1.27
2022-09-07T15:17:48.570Z,1.40
2022-09-07T15:20:35.161Z,1.50
2022-09-07T15:23:06.008Z,1.38
2022-09-07T15:25:32.858Z,1.15
2022-09-07T15:27:59.372Z,1.42
2022-09-07T15:30:27.349Z,1.30
2022-09-07T15:32:54.783Z,1.70
2022-09-07T15:35:21.217Z,1.30
2022-09-07T15:38:05.231Z,1.40
2022-09-07T15:41:04.079Z,1.10
2022-09-07T15:43:32.681Z,1.35
2022-09-07T15:45:59.431Z,1.40
2022-09-07T15:48:26.017Z,1.35
2022-09-07T15:51:00.299Z,1.33
2022-09-07T15:56:13.958Z,1.40
2022-09-07T15:58:40.592Z,1.10
2022-09-07T16:03:54.264Z,1.20
2022-09-07T16:06:21.839Z,2.30
2022-09-07T16:08:51.342Z,2.05
2022-09-07T16:11:23.893Z,1.52
2022-09-07T16:14:01.375Z,1.20
2022-09-07T16:17:26.571Z,1.50
2022-09-07T16:19:15.367Z,1.40
2022-09-07T16:21:42.887Z,1.65
2022-09-07T16:24:09.615Z,1.77
2022-09-07T16:26:36.120Z,1.48
2022-09-07T16:29:03.130Z,1.60
2022-09-07T16:31:31.168Z,1.45
2022-09-07T16:33:58.164Z,1.90
2022-09-07T16:36:24.619Z,1.58
2022-09-07T16:38:55.330Z,1.85
2022-09-07T16:41:23.357Z,1.63
2022-09-07T16:43:49.902Z,2.35
2022-09-07T16:46:17.730Z,1.77
2022-09-07T16:48:44.291Z,1.90
2022-09-07T16:51:14.661Z,3.35
2022-09-07T16:53:41.335Z,2.13
2022-09-07T16:56:16.669Z,1.92
2022-09-07T16:58:44.756Z,2.10
2022-09-07T17:01:12.361Z,2.13
2022-09-07T17:03:39.420Z,1.67
2022-09-07T17:06:06.704Z,2.00
2022-09-07T17:08:34.046Z,2.10
2022-09-07T17:11:07.907Z,1.93
2022-09-07T17:13:35.245Z,2.07
2022-09-07T17:16:03.323Z,1.93
2022-09-07T17:21:16.677Z,2.03
2022-09-07T17:23:51.057Z,2.30
2022-09-07T17:26:18.742Z,1.50
2022-09-07T17:33:58.669Z,1.93
2022-09-07T17:36:25.853Z,1.80
2022-09-07T17:56:19.799Z,2.08
2022-09-07T17:58:46.298Z,2.00
2022-09-07T18:01:14.457Z,2.43
2022-09-07T18:03:41.309Z,2.17
2022-09-07T18:06:08.473Z,1.63
2022-09-07T18:08:35.943Z,2.00
2022-09-07T18:13:54.412Z,2.13
2022-09-07T18:16:22.707Z,2.00
2022-09-07T18:18:49.438Z,2.33
2022-09-07T18:21:26.847Z,2.00
2022-09-07T18:23:54.267Z,2.03
2022-09-07T18:26:20.965Z,2.13
2022-09-07T18:29:12.980Z,2.20
2022-09-07T18:31:37.824Z,2.00
2022-09-07T18:34:04.424Z,2.00
2022-09-07T18:36:30.890Z,1.83
2022-09-07T18:39:00.487Z,2.00
2022-09-07T18:41:26.977Z,2.10
2022-09-07T18:43:53.647Z,1.87
2022-09-07T18:46:21.489Z,1.70
2022-09-07T18:48:47.978Z,2.00
2022-09-07T18:51:14.524Z,1.60
2022-09-07T18:53:41.128Z,2.00
2022-09-07T18:56:10.626Z,1.90
2022-09-07T18:58:38.185Z,1.87
2022-09-07T19:01:05.878Z,2.27
2022-09-07T19:03:32.694Z,2.27
2022-09-07T19:06:00.006Z,1.87
2022-09-07T19:08:29.737Z,2.40
2022-09-07T19:10:56.388Z,1.90
2022-09-07T19:13:22.971Z,1.77
2022-09-07T19:15:49.505Z,1.90
2022-09-07T19:18:16.140Z,2.17
2022-09-07T19:20:42.682Z,1.57
2022-09-07T19:23:09.118Z,1.80
2022-09-07T19:25:39.172Z,1.73
2022-09-07T19:28:05.575Z,1.80
2022-09-07T19:30:33.843Z,1.80
2022-09-07T19:33:04.190Z,1.87
2022-09-07T19:35:34.210Z,1.80
2022-09-07T19:38:00.633Z,1.77
2022-09-07T19:40:27.115Z,1.70
2022-09-07T19:42:53.561Z,1.50
2022-09-07T19:45:20.013Z,1.90
2022-09-07T19:47:46.497Z,2.00
2022-09-07T19:50:13.077Z,1.40
2022-09-07T19:52:39.549Z,1.80
2022-09-07T19:55:06.244Z,1.70
2022-09-07T19:57:32.882Z,1.63
2022-09-07T20:00:00.381Z,1.53
2022-09-07T20:02:26.915Z,2.20
2022-09-07T20:04:53.355Z,2.10
2022-09-07T20:07:19.792Z,2.20
2022-09-07T20:09:50.425Z,1.77
2022-09-07T20:12:18.613Z,1.63
2022-09-07T20:14:45.106Z,1.80
2022-09-07T20:17:12.211Z,2.07
2022-09-07T20:19:38.627Z,1.77
2022-09-07T20:22:05.161Z,2.10
2022-09-07T20:24:31.635Z,2.23
2022-09-07T20:27:03.148Z,1.90
2022-09-07T20:29:31.665Z,1.77
2022-09-07T20:31:58.916Z,1.97
2022-09-07T20:34:25.965Z,1.87
2022-09-07T20:36:52.502Z,2.27
2022-09-07T20:39:19.577Z,2.47
2022-09-07T20:41:46.009Z,2.07
2022-09-07T20:44:12.690Z,2.00
2022-09-07T20:46:39.256Z,2.00
2022-09-07T20:49:05.908Z,2.13
2022-09-07T20:51:32.579Z,2.30
2022-09-07T20:53:59.089Z,2.50
2022-09-07T20:56:27.379Z,2.27
2022-09-07T20:58:55.315Z,1.80
2022-09-07T21:01:21.830Z,2.07
2022-09-07T21:03:49.641Z,2.20
2022-09-07T21:06:16.494Z,2.53
2022-09-07T21:08:43.691Z,2.23
2022-09-07T21:11:15.293Z,2.40
2022-09-07T21:13:42.139Z,2.20
2022-09-07T21:16:09.935Z,2.20
2022-09-07T21:18:36.890Z,2.30
2022-09-07T21:21:19.374Z,2.33
2022-09-07T21:23:46.944Z,2.60
2022-09-07T21:26:13.395Z,2.00
2022-09-07T21:28:39.846Z,2.63
2022-09-07T21:31:07.144Z,2.50
2022-09-07T21:33:35.231Z,2.10
2022-09-07T21:36:05.344Z,2.43
2022-09-07T21:38:32.033Z,2.30
2022-09-07T21:40:58.650Z,2.53
2022-09-07T21:43:25.326Z,2.63
2022-09-07T21:45:51.735Z,2.03
2022-09-07T21:48:18.220Z,2.63
2022-09-07T21:50:46.794Z,2.33
2022-09-07T21:53:13.224Z,2.20
2022-09-07T21:55:39.645Z,2.20
2022-09-07T21:58:06.063Z,2.10
2022-09-07T22:00:32.557Z,2.30
2022-09-07T22:02:59.114Z,2.20
2022-09-07T22:05:25.627Z,2.45
2022-09-07T22:07:52.290Z,2.60
2022-09-07T22:10:18.736Z,2.30
2022-09-07T22:12:45.166Z,2.40
2022-09-07T22:15:11.668Z,2.47
2022-09-07T22:17:38.174Z,2.50
2022-09-07T22:20:04.872Z,2.47
2022-09-07T22:22:31.376Z,2.37
2022-09-07T22:24:57.868Z,2.23
2022-09-07T22:27:24.325Z,2.40
2022-09-07T22:29:50.809Z,2.10
2022-09-07T22:32:17.265Z,2.07
2022-09-07T22:34:43.747Z,2.20
2022-09-07T22:37:10.409Z,2.80
2022-09-07T22:39:37.287Z,2.40
2022-09-07T22:42:03.810Z,2.23
2022-09-07T22:44:30.346Z,2.27
2022-09-07T22:46:56.829Z,2.20
2022-09-07T22:49:23.324Z,2.43
2022-09-07T22:51:49.863Z,2.37
2022-09-07T22:54:16.284Z,2.37
2022-09-07T22:56:42.794Z,2.33
2022-09-07T22:59:10.334Z,2.70
2022-09-07T23:01:37.104Z,2.70
2022-09-07T23:04:04.357Z,2.13
2022-09-07T23:06:32.580Z,1.87
2022-09-07T23:09:00.221Z,1.80
2022-09-07T23:11:27.428Z,2.53
2022-09-07T23:13:58.409Z,2.87
2022-09-07T23:16:25.519Z,2.37
2022-09-07T23:18:52.100Z,2.30
2022-09-07T23:21:18.535Z,2.07
2022-09-07T23:23:48.754Z,2.93
2022-09-07T23:26:15.177Z,2.20
2022-09-07T23:28:41.606Z,2.70
2022-09-07T23:31:10.005Z,2.30
2022-09-07T23:33:37.238Z,2.60
2022-09-07T23:36:04.758Z,2.50
2022-09-07T23:38:32.226Z,2.97
2022-09-07T23:40:59.113Z,2.57
2022-09-07T23:43:27.371Z,2.57
2022-09-07T23:45:54.397Z,2.40
2022-09-07T23:48:21.667Z,2.60
2022-09-07T23:50:48.161Z,2.60
2022-09-07T23:53:14.674Z,2.70
2022-09-07T23:55:41.260Z,2.60
2022-09-07T23:58:08.160Z,2.20
